<?xml version="1.0" encoding="UTF-8" standalone="no" ?>
<gpx xmlns="http://www.topografix.com/GPX/1/1" xmlns:xsi="http://www.w3.org/2001/XMLSchema-instance" xsi:schemaLocation="http://www.topografix.com/GPX/1/1 http://www.topografix.com/GPX/1/1/gpx.xsd" version="1.1" creator="VisuGPX - https://www.visugpx.com">
  <metadata>
    <name>LogeFougereuse_Dortieres_21.6km</name>
    <desc><![CDATA[gnerando idor:8031706]]></desc>
  </metadata>
  <trk>
    <name><![CDATA[LogeFougereuse_Dortieres_21.6km-8031706]]></name>
    <extensions>
      <line xmlns="http://www.topografix.com/GPX/gpx_style/0/2">
        <color>0000FF</color>
        <width>4</width>
      </line>
    </extensions>
    <trkseg>
      <trkpt lat="46.61472" lon="-0.69252">
        <ele>158</ele>
        <time>2023-11-05T10:51:02Z</time>
      </trkpt>
      <trkpt lat="46.61478" lon="-0.68922">
        <ele>158</ele>
        <time>2023-11-05T10:56:05Z</time>
      </trkpt>
      <trkpt lat="46.61422" lon="-0.68853">
        <ele>157</ele>
        <time>2023-11-05T10:57:43Z</time>
      </trkpt>
      <trkpt lat="46.61472" lon="-0.68686">
        <ele>155</ele>
        <time>2023-11-05T11:00:29Z</time>
      </trkpt>
      <trkpt lat="46.61442" lon="-0.6854">
        <ele>152</ele>
        <time>2023-11-05T11:02:49Z</time>
      </trkpt>
      <trkpt lat="46.61333" lon="-0.68394">
        <ele>151</ele>
        <time>2023-11-05T11:06:07Z</time>
      </trkpt>
      <trkpt lat="46.61118" lon="-0.68141">
        <ele>143</ele>
        <time>2023-11-05T11:12:16Z</time>
      </trkpt>
      <trkpt lat="46.6095" lon="-0.6778">
        <ele>136</ele>
        <time>2023-11-05T11:18:55Z</time>
      </trkpt>
      <trkpt lat="46.60932" lon="-0.67274">
        <ele>130</ele>
        <time>2023-11-05T11:26:40Z</time>
      </trkpt>
      <trkpt lat="46.60856" lon="-0.66922">
        <ele>125</ele>
        <time>2023-11-05T11:32:18Z</time>
      </trkpt>
      <trkpt lat="46.60756" lon="-0.66686">
        <ele>124</ele>
        <time>2023-11-05T11:36:32Z</time>
      </trkpt>
      <trkpt lat="46.60652" lon="-0.66518">
        <ele>122</ele>
        <time>2023-11-05T11:40:00Z</time>
      </trkpt>
      <trkpt lat="46.60531" lon="-0.66458">
        <ele>121</ele>
        <time>2023-11-05T11:42:50Z</time>
      </trkpt>
      <trkpt lat="46.60375" lon="-0.66227">
        <ele>124</ele>
        <time>2023-11-05T11:47:47Z</time>
      </trkpt>
      <trkpt lat="46.60502" lon="-0.66115">
        <ele>119</ele>
        <time>2023-11-05T11:51:05Z</time>
      </trkpt>
      <trkpt lat="46.60582" lon="-0.66038">
        <ele>115</ele>
        <time>2023-11-05T11:53:13Z</time>
      </trkpt>
      <trkpt lat="46.60537" lon="-0.65703">
        <ele>95</ele>
        <time>2023-11-05T11:58:26Z</time>
      </trkpt>
      <trkpt lat="46.60644" lon="-0.65561">
        <ele>102</ele>
        <time>2023-11-05T12:01:40Z</time>
      </trkpt>
      <trkpt lat="46.60761" lon="-0.65536">
        <ele>101</ele>
        <time>2023-11-05T12:04:17Z</time>
      </trkpt>
      <trkpt lat="46.60826" lon="-0.65544">
        <ele>100</ele>
        <time>2023-11-05T12:05:44Z</time>
      </trkpt>
      <trkpt lat="46.60806" lon="-0.65664">
        <ele>102</ele>
        <time>2023-11-05T12:07:38Z</time>
      </trkpt>
      <trkpt lat="46.60947" lon="-0.65772">
        <ele>109</ele>
        <time>2023-11-05T12:11:10Z</time>
      </trkpt>
      <trkpt lat="46.61021" lon="-0.65763">
        <ele>112</ele>
        <time>2023-11-05T12:12:49Z</time>
      </trkpt>
      <trkpt lat="46.61092" lon="-0.65725">
        <ele>116</ele>
        <time>2023-11-05T12:14:30Z</time>
      </trkpt>
      <trkpt lat="46.61301" lon="-0.6542">
        <ele>117</ele>
        <time>2023-11-05T12:21:05Z</time>
      </trkpt>
      <trkpt lat="46.6159" lon="-0.6575">
        <ele>119</ele>
        <time>2023-11-05T12:29:15Z</time>
      </trkpt>
      <trkpt lat="46.61988" lon="-0.6578">
        <ele>125</ele>
        <time>2023-11-05T12:38:07Z</time>
      </trkpt>
      <trkpt lat="46.62159" lon="-0.66076">
        <ele>120</ele>
        <time>2023-11-05T12:44:02Z</time>
      </trkpt>
      <trkpt lat="46.62701" lon="-0.66244">
        <ele>120</ele>
        <time>2023-11-05T12:56:21Z</time>
      </trkpt>
      <trkpt lat="46.62548" lon="-0.66493">
        <ele>115</ele>
        <time>2023-11-05T13:01:27Z</time>
      </trkpt>
      <trkpt lat="46.62569" lon="-0.66725">
        <ele>121</ele>
        <time>2023-11-05T13:05:02Z</time>
      </trkpt>
      <trkpt lat="46.62727" lon="-0.6657">
        <ele>136</ele>
        <time>2023-11-05T13:09:16Z</time>
      </trkpt>
      <trkpt lat="46.62855" lon="-0.66561">
        <ele>142</ele>
        <time>2023-11-05T13:12:07Z</time>
      </trkpt>
      <trkpt lat="46.62866" lon="-0.66433">
        <ele>127</ele>
        <time>2023-11-05T13:14:05Z</time>
      </trkpt>
      <trkpt lat="46.62937" lon="-0.66321">
        <ele>120</ele>
        <time>2023-11-05T13:16:25Z</time>
      </trkpt>
      <trkpt lat="46.63052" lon="-0.66274">
        <ele>123</ele>
        <time>2023-11-05T13:19:04Z</time>
      </trkpt>
      <trkpt lat="46.63167" lon="-0.66188">
        <ele>129</ele>
        <time>2023-11-05T13:21:57Z</time>
      </trkpt>
      <trkpt lat="46.63244" lon="-0.66291">
        <ele>136</ele>
        <time>2023-11-05T13:24:16Z</time>
      </trkpt>
      <trkpt lat="46.63729" lon="-0.6672">
        <ele>168</ele>
        <time>2023-11-05T13:36:54Z</time>
      </trkpt>
      <trkpt lat="46.63921" lon="-0.66811">
        <ele>170</ele>
        <time>2023-11-05T13:41:23Z</time>
      </trkpt>
      <trkpt lat="46.64192" lon="-0.67458">
        <ele>163</ele>
        <time>2023-11-05T13:52:58Z</time>
      </trkpt>
      <trkpt lat="46.64275" lon="-0.67497">
        <ele>162</ele>
        <time>2023-11-05T13:54:54Z</time>
      </trkpt>
      <trkpt lat="46.64955" lon="-0.67463">
        <ele>165</ele>
        <time>2023-11-05T14:10:02Z</time>
      </trkpt>
      <trkpt lat="46.65026" lon="-0.6739">
        <ele>163</ele>
        <time>2023-11-05T14:11:58Z</time>
      </trkpt>
      <trkpt lat="46.65185" lon="-0.67381">
        <ele>159</ele>
        <time>2023-11-05T14:15:30Z</time>
      </trkpt>
      <trkpt lat="46.65465" lon="-0.67557">
        <ele>166</ele>
        <time>2023-11-05T14:22:17Z</time>
      </trkpt>
      <trkpt lat="46.65391" lon="-0.67716">
        <ele>157</ele>
        <time>2023-11-05T14:25:13Z</time>
      </trkpt>
      <trkpt lat="46.65438" lon="-0.68111">
        <ele>149</ele>
        <time>2023-11-05T14:31:20Z</time>
      </trkpt>
      <trkpt lat="46.65441" lon="-0.68205">
        <ele>147</ele>
        <time>2023-11-05T14:32:46Z</time>
      </trkpt>
      <trkpt lat="46.65382" lon="-0.68265">
        <ele>146</ele>
        <time>2023-11-05T14:34:23Z</time>
      </trkpt>
      <trkpt lat="46.6545" lon="-0.68428">
        <ele>142</ele>
        <time>2023-11-05T14:37:17Z</time>
      </trkpt>
      <trkpt lat="46.65477" lon="-0.68806">
        <ele>132</ele>
        <time>2023-11-05T14:43:05Z</time>
      </trkpt>
      <trkpt lat="46.65368" lon="-0.6899">
        <ele>129</ele>
        <time>2023-11-05T14:46:48Z</time>
      </trkpt>
      <trkpt lat="46.65403" lon="-0.69175">
        <ele>132</ele>
        <time>2023-11-05T14:49:44Z</time>
      </trkpt>
      <trkpt lat="46.65341" lon="-0.69462">
        <ele>139</ele>
        <time>2023-11-05T14:54:19Z</time>
      </trkpt>
      <trkpt lat="46.65368" lon="-0.69741">
        <ele>149</ele>
        <time>2023-11-05T14:58:37Z</time>
      </trkpt>
      <trkpt lat="46.65435" lon="-0.70201">
        <ele>146</ele>
        <time>2023-11-05T15:05:48Z</time>
      </trkpt>
      <trkpt lat="46.65359" lon="-0.70282">
        <ele>148</ele>
        <time>2023-11-05T15:07:54Z</time>
      </trkpt>
      <trkpt lat="46.65176" lon="-0.70608">
        <ele>142</ele>
        <time>2023-11-05T15:14:20Z</time>
      </trkpt>
      <trkpt lat="46.65179" lon="-0.70724">
        <ele>137</ele>
        <time>2023-11-05T15:16:06Z</time>
      </trkpt>
      <trkpt lat="46.65135" lon="-0.70806">
        <ele>129</ele>
        <time>2023-11-05T15:17:41Z</time>
      </trkpt>
      <trkpt lat="46.65035" lon="-0.7081">
        <ele>124</ele>
        <time>2023-11-05T15:19:55Z</time>
      </trkpt>
      <trkpt lat="46.65002" lon="-0.71063">
        <ele>124</ele>
        <time>2023-11-05T15:23:51Z</time>
      </trkpt>
      <trkpt lat="46.64884" lon="-0.71346">
        <ele>138</ele>
        <time>2023-11-05T15:28:54Z</time>
      </trkpt>
      <trkpt lat="46.64917" lon="-0.71119">
        <ele>127</ele>
        <time>2023-11-05T15:32:27Z</time>
      </trkpt>
      <trkpt lat="46.64658" lon="-0.70561">
        <ele>123</ele>
        <time>2023-11-05T15:42:44Z</time>
      </trkpt>
      <trkpt lat="46.64631" lon="-0.70389">
        <ele>126</ele>
        <time>2023-11-05T15:45:25Z</time>
      </trkpt>
      <trkpt lat="46.64584" lon="-0.70149">
        <ele>125</ele>
        <time>2023-11-05T15:49:14Z</time>
      </trkpt>
      <trkpt lat="46.64457" lon="-0.70304">
        <ele>115</ele>
        <time>2023-11-05T15:52:55Z</time>
      </trkpt>
      <trkpt lat="46.64354" lon="-0.70355">
        <ele>112</ele>
        <time>2023-11-05T15:55:20Z</time>
      </trkpt>
      <trkpt lat="46.64298" lon="-0.70282">
        <ele>115</ele>
        <time>2023-11-05T15:57:00Z</time>
      </trkpt>
      <trkpt lat="46.64195" lon="-0.70265">
        <ele>116</ele>
        <time>2023-11-05T15:59:19Z</time>
      </trkpt>
      <trkpt lat="46.64101" lon="-0.70347">
        <ele>113</ele>
        <time>2023-11-05T16:01:45Z</time>
      </trkpt>
      <trkpt lat="46.63948" lon="-0.70377">
        <ele>122</ele>
        <time>2023-11-05T16:05:11Z</time>
      </trkpt>
      <trkpt lat="46.63836" lon="-0.70222">
        <ele>138</ele>
        <time>2023-11-05T16:08:37Z</time>
      </trkpt>
      <trkpt lat="46.63883" lon="-0.70158">
        <ele>138</ele>
        <time>2023-11-05T16:10:03Z</time>
      </trkpt>
      <trkpt lat="46.63921" lon="-0.69947">
        <ele>140</ele>
        <time>2023-11-05T16:13:23Z</time>
      </trkpt>
      <trkpt lat="46.6408" lon="-0.69686">
        <ele>142</ele>
        <time>2023-11-05T16:18:43Z</time>
      </trkpt>
      <trkpt lat="46.63921" lon="-0.69411">
        <ele>138</ele>
        <time>2023-11-05T16:24:12Z</time>
      </trkpt>
      <trkpt lat="46.63842" lon="-0.69446">
        <ele>134</ele>
        <time>2023-11-05T16:26:02Z</time>
      </trkpt>
      <trkpt lat="46.6378" lon="-0.69333">
        <ele>130</ele>
        <time>2023-11-05T16:28:15Z</time>
      </trkpt>
      <trkpt lat="46.63697" lon="-0.69407">
        <ele>127</ele>
        <time>2023-11-05T16:30:25Z</time>
      </trkpt>
      <trkpt lat="46.63594" lon="-0.69326">
        <ele>125</ele>
        <time>2023-11-05T16:33:01Z</time>
      </trkpt>
      <trkpt lat="46.63397" lon="-0.69145">
        <ele>136</ele>
        <time>2023-11-05T16:38:12Z</time>
      </trkpt>
      <trkpt lat="46.63314" lon="-0.69214">
        <ele>138</ele>
        <time>2023-11-05T16:40:19Z</time>
      </trkpt>
      <trkpt lat="46.6329" lon="-0.69394">
        <ele>132</ele>
        <time>2023-11-05T16:43:07Z</time>
      </trkpt>
      <trkpt lat="46.63326" lon="-0.69651">
        <ele>137</ele>
        <time>2023-11-05T16:47:08Z</time>
      </trkpt>
      <trkpt lat="46.63399" lon="-0.699">
        <ele>123</ele>
        <time>2023-11-05T16:51:16Z</time>
      </trkpt>
      <trkpt lat="46.63296" lon="-0.7011">
        <ele>120</ele>
        <time>2023-11-05T16:55:12Z</time>
      </trkpt>
      <trkpt lat="46.63214" lon="-0.70179">
        <ele>112</ele>
        <time>2023-11-05T16:57:18Z</time>
      </trkpt>
      <trkpt lat="46.63158" lon="-0.70145">
        <ele>113</ele>
        <time>2023-11-05T16:58:39Z</time>
      </trkpt>
      <trkpt lat="46.63122" lon="-0.70076">
        <ele>116</ele>
        <time>2023-11-05T16:59:59Z</time>
      </trkpt>
      <trkpt lat="46.62925" lon="-0.69986">
        <ele>121</ele>
        <time>2023-11-05T17:04:34Z</time>
      </trkpt>
      <trkpt lat="46.62813" lon="-0.69814">
        <ele>127</ele>
        <time>2023-11-05T17:08:12Z</time>
      </trkpt>
      <trkpt lat="46.62763" lon="-0.69836">
        <ele>128</ele>
        <time>2023-11-05T17:09:21Z</time>
      </trkpt>
      <trkpt lat="46.62639" lon="-0.69561">
        <ele>139</ele>
        <time>2023-11-05T17:14:23Z</time>
      </trkpt>
      <trkpt lat="46.62236" lon="-0.69183">
        <ele>153</ele>
        <time>2023-11-05T17:25:02Z</time>
      </trkpt>
      <trkpt lat="46.61926" lon="-0.69501">
        <ele>136</ele>
        <time>2023-11-05T17:33:29Z</time>
      </trkpt>
      <trkpt lat="46.61693" lon="-0.69274">
        <ele>152</ele>
        <time>2023-11-05T17:39:43Z</time>
      </trkpt>
      <trkpt lat="46.6172" lon="-0.69072">
        <ele>144</ele>
        <time>2023-11-05T17:42:51Z</time>
      </trkpt>
      <trkpt lat="46.6177" lon="-0.68982">
        <ele>142</ele>
        <time>2023-11-05T17:44:37Z</time>
      </trkpt>
      <trkpt lat="46.61684" lon="-0.68591">
        <ele>150</ele>
        <time>2023-11-05T17:50:54Z</time>
      </trkpt>
      <trkpt lat="46.61445" lon="-0.68844">
        <ele>157</ele>
        <time>2023-11-05T17:57:28Z</time>
      </trkpt>
      <trkpt lat="46.61466" lon="-0.68973">
        <ele>158</ele>
        <time>2023-11-05T17:59:30Z</time>
      </trkpt>
      <trkpt lat="46.61472" lon="-0.69252">
        <ele>158</ele>
        <time>2023-11-05T18:03:45Z</time>
      </trkpt>
    </trkseg>
  </trk>
</gpx>